Airfield :
LOGIN :

Register | Disclaimer

   EN    FR    IT 

 










Legend :    VFR   Marginal VFR   IFR   Intensive IFR   Very Intensive IFR
Visi :
Ceiling :
>= 8 km
>= 3000ft
5 to 8 km
1000 to 3000 ft
1500m to 5 km
500 to 1000 ft
800 to 1500m
200 to 500 ft
< 800m
< 200 ft
Symbols :   Thunderstorms  Fog  Heavy snow  Heavy precipitations  Wind > 20 kt
SIGMETs :     Misc.  Thunderstorms  Icing  Turbulence  Mountain Waves  Volcanic Ashes






- Airport Elevation : 266 ft
- IATA code : NCL


EGNT - Newcastle

CURRENT METAR :
  • 261050Z VRB03KT CAVOK 03/02 Q1012

EXPIRED METARs :
  • 261020Z VRB02KT CAVOK 03/01 Q1012
  • 260950Z VRB01KT CAVOK 01/M00 Q1012
  • 260920Z 17003KT CAVOK 01/M01 Q1012
  • 260850Z 11002KT CAVOK M01/M02 Q1012
  • 260820Z VRB01KT CAVOK M00/M02 Q1013

TAF AMD TAF EGNT
Valid from the 26 at 06:00 until the 27 at 06:00 UTC


260634Z 2606/2706 VRB04KT 9999 FEW045
BECMG 2612/2615 18010KT BKN010
TEMPO 2613/2706 7000 -RADZ BKN007
PROB30
TEMPO 2614/2702 4000 RADZ -RASN BKN004
BECMG 2622/2701 27004KT
BECMG 2703/2706 SCT016
ATIS : +44 191 214 3400



MET'MAP, your aeronautical weather chart ! - Copyright ORBIFLY December 2007 - Disclaimer

ORBIFLY MET'MAP TEAM :

Programming & Development : Alexandra Zaïnal
Concept & original design : Baudouin d'Aumeries
Assistance for programming : Marc-Olivier Méhu
Technical & hardware support : Manuel Goepfert

Contact : metmap@orbifly.com




SOURCES & CREDITS :

   NOAA